Time;durP1;ratioP1;P1;durP2;ratioP2;P2;SDS_P1;SDS_P2;PMS_P1;PMS_P2;Temp;Humidity;BMP_temperature;BMP_pressure;BME280_temperature;BME280_humidity;BME280_pressure;Samples;Min_cycle;Max_cycle;Signal;HPM_P1;HPM_P2
2021/08/15 00:01:04;;;;;;;25.60;13.30;;;;;;;;;;4820416;29;20038;-73
2021/08/15 00:03:30;;;;;;;19.27;11.90;;;;;;;;;;4820446;29;20106;-72
2021/08/15 00:05:55;;;;;;;24.77;13.18;;;;;;;;;;4820239;29;20487;-73
2021/08/15 00:08:21;;;;;;;20.75;12.80;;;;;;;;;;4822008;29;20623;-73
2021/08/15 00:10:46;;;;;;;22.52;13.32;;;;;;;;;;4821897;29;20045;-75
2021/08/15 00:13:12;;;;;;;26.67;13.77;;;;;;;;;;4821635;29;20050;-74
2021/08/15 00:15:37;;;;;;;24.10;13.50;;;;;;;;;;4820409;29;20029;-73
2021/08/15 00:18:03;;;;;;;27.23;14.45;;;;;;;;;;4821779;29;20050;-73
2021/08/15 00:20:28;;;;;;;25.08;14.32;;;;;;;;;;4820470;29;20113;-74
2021/08/15 00:22:55;;;;;;;24.05;13.07;;;;;;;;;;4821485;29;20049;-74
2021/08/15 00:25:21;;;;;;;24.95;12.63;;;;;;;;;;4820028;29;20114;-74
2021/08/15 00:27:47;;;;;;;25.65;13.90;;;;;;;;;;4820376;29;20489;-74
2021/08/15 00:30:16;;;;;;;24.35;13.77;;;;;;;;;;4820530;29;20087;-72
2021/08/15 00:32:44;;;;;;;27.75;14.65;;;;;;;;;;4820581;29;20041;-73
2021/08/15 00:35:10;;;;;;;39.78;15.70;;;;;;;;;;4820139;29;20034;-72
2021/08/15 00:37:36;;;;;;;33.95;14.68;;;;;;;;;;4821390;29;20031;-73
2021/08/15 00:40:03;;;;;;;26.30;14.43;;;;;;;;;;4819735;29;20133;-73
2021/08/15 00:42:30;;;;;;;29.80;14.75;;;;;;;;;;4819990;29;20343;-74
2021/08/15 00:44:55;;;;;;;26.52;15.32;;;;;;;;;;4820017;29;20522;-73
2021/08/15 00:47:21;;;;;;;23.63;15.07;;;;;;;;;;4821009;29;20466;-74
2021/08/15 00:49:47;;;;;;;25.20;14.07;;;;;;;;;;4819902;29;20502;-73
2021/08/15 00:52:12;;;;;;;26.40;13.63;;;;;;;;;;4819764;29;20038;-74
2021/08/15 00:54:38;;;;;;;29.27;15.18;;;;;;;;;;4820208;29;20425;-73
2021/08/15 00:57:06;;;;;;;22.20;12.98;;;;;;;;;;4820770;29;20031;-74
2021/08/15 00:59:32;;;;;;;28.05;14.20;;;;;;;;;;4820992;29;20403;-74
2021/08/15 01:01:58;;;;;;;24.95;13.85;;;;;;;;;;4819645;29;20452;-74
2021/08/15 01:04:25;;;;;;;23.75;13.15;;;;;;;;;;4821321;29;20114;-73
2021/08/15 01:06:51;;;;;;;23.80;14.00;;;;;;;;;;4819546;29;20034;-74
2021/08/15 01:09:17;;;;;;;26.73;13.80;;;;;;;;;;4820941;29;20587;-74
2021/08/15 01:11:43;;;;;;;26.38;14.63;;;;;;;;;;4820938;29;20125;-73
2021/08/15 01:14:09;;;;;;;25.98;14.43;;;;;;;;;;4820888;29;20058;-73
2021/08/15 01:16:39;;;;;;;22.98;14.00;;;;;;;;;;4820743;29;20037;-73
2021/08/15 01:19:05;;;;;;;24.20;15.18;;;;;;;;;;4804176;29;20037;-72
2021/08/15 01:21:30;;;;;;;24.42;14.55;;;;;;;;;;4821179;29;20083;-74
2021/08/15 01:23:56;;;;;;;23.40;13.05;;;;;;;;;;4819656;29;20030;-73
2021/08/15 01:26:22;;;;;;;28.75;14.00;;;;;;;;;;4820499;29;20038;-74
2021/08/15 01:28:49;;;;;;;26.48;13.93;;;;;;;;;;4819504;29;20037;-74
2021/08/15 01:31:16;;;;;;;24.60;14.38;;;;;;;;;;4820512;29;20031;-73
2021/08/15 01:33:41;;;;;;;27.42;13.95;;;;;;;;;;4819432;29;20054;-74
2021/08/15 01:36:09;;;;;;;23.33;14.10;;;;;;;;;;4819089;29;20060;-74
2021/08/15 01:38:37;;;;;;;26.83;14.52;;;;;;;;;;4818979;29;20054;-74
2021/08/15 01:41:05;;;;;;;26.55;15.43;;;;;;;;;;4820233;29;20358;-73
2021/08/15 01:43:33;;;;;;;37.28;18.02;;;;;;;;;;4820454;29;20050;-74
2021/08/15 01:46:00;;;;;;;29.85;14.15;;;;;;;;;;4820314;29;20420;-73
2021/08/15 01:48:25;;;;;;;25.75;14.35;;;;;;;;;;4819116;29;20448;-73
2021/08/15 01:50:50;;;;;;;29.63;13.55;;;;;;;;;;4820483;29;20026;-73
2021/08/15 01:53:19;;;;;;;22.58;14.15;;;;;;;;;;4820464;29;20034;-73
2021/08/15 01:55:45;;;;;;;22.65;14.45;;;;;;;;;;4820345;29;20399;-74
2021/08/15 01:58:11;;;;;;;22.63;13.38;;;;;;;;;;4820331;29;20037;-74
2021/08/15 02:00:39;;;;;;;29.10;14.63;;;;;;;;;;4818984;29;20030;-73
2021/08/15 02:03:05;;;;;;;26.83;12.77;;;;;;;;;;4818851;29;20023;-74
2021/08/15 02:05:31;;;;;;;24.85;13.75;;;;;;;;;;4820240;29;20034;-73
2021/08/15 02:07:57;;;;;;;20.48;12.70;;;;;;;;;;4820165;29;20048;-74
2021/08/15 02:10:27;;;;;;;27.40;13.63;;;;;;;;;;4820432;29;20041;-74
2021/08/15 02:12:53;;;;;;;26.17;14.27;;;;;;;;;;4824099;29;20484;-72
2021/08/15 02:15:20;;;;;;;23.38;15.02;;;;;;;;;;4821984;29;20036;-73
2021/08/15 02:17:46;;;;;;;25.48;12.98;;;;;;;;;;4823509;29;20056;-73
2021/08/15 02:20:14;;;;;;;24.15;13.57;;;;;;;;;;4823320;29;20060;-73
2021/08/15 02:22:39;;;;;;;27.58;14.68;;;;;;;;;;4822415;29;20052;-73
2021/08/15 02:25:07;;;;;;;24.88;13.60;;;;;;;;;;4821679;29;20058;-73
2021/08/15 02:27:33;;;;;;;26.10;13.48;;;;;;;;;;4823344;29;20534;-73
2021/08/15 02:29:59;;;;;;;30.52;13.85;;;;;;;;;;4823250;29;20059;-73
2021/08/15 02:32:24;;;;;;;24.13;14.02;;;;;;;;;;4822404;29;20031;-74
2021/08/15 02:34:50;;;;;;;24.20;14.82;;;;;;;;;;4822441;29;20030;-75
2021/08/15 02:37:15;;;;;;;21.92;14.05;;;;;;;;;;4821648;29;20065;-75
2021/08/15 02:39:41;;;;;;;27.38;14.27;;;;;;;;;;4821813;29;20415;-75
2021/08/15 02:42:06;;;;;;;29.98;15.20;;;;;;;;;;4822947;29;20498;-74
2021/08/15 02:44:33;;;;;;;23.55;13.68;;;;;;;;;;4824412;29;20034;-72
2021/08/15 02:46:58;;;;;;;25.08;14.02;;;;;;;;;;4823588;29;20110;-73
2021/08/15 02:49:24;;;;;;;24.20;13.98;;;;;;;;;;4823420;29;20446;-72
2021/08/15 02:51:49;;;;;;;25.67;14.55;;;;;;;;;;4823504;29;20034;-73
2021/08/15 02:54:14;;;;;;;28.42;13.32;;;;;;;;;;4821961;29;20026;-73
2021/08/15 02:56:40;;;;;;;27.67;13.50;;;;;;;;;;4822166;29;20118;-73
2021/08/15 02:59:05;;;;;;;23.00;13.77;;;;;;;;;;4821780;29;20400;-73
2021/08/15 03:01:31;;;;;;;23.13;13.77;;;;;;;;;;4822294;29;20038;-73
2021/08/15 03:03:56;;;;;;;21.67;12.70;;;;;;;;;;4822122;29;20038;-73
2021/08/15 03:06:22;;;;;;;26.98;12.82;;;;;;;;;;4822541;29;20030;-73
2021/08/15 03:08:47;;;;;;;23.05;13.80;;;;;;;;;;4822104;29;20027;-73
2021/08/15 03:11:13;;;;;;;26.98;15.10;;;;;;;;;;4821745;29;20038;-73
2021/08/15 03:13:38;;;;;;;24.42;13.02;;;;;;;;;;4823337;29;20436;-73
2021/08/15 03:16:04;;;;;;;28.98;14.82;;;;;;;;;;4823157;29;20037;-73
2021/08/15 03:18:29;;;;;;;22.73;13.25;;;;;;;;;;4821677;29;20041;-73
2021/08/15 03:20:54;;;;;;;93.20;16.77;;;;;;;;;;4821534;29;20403;-73
2021/08/15 03:23:20;;;;;;;32.00;13.15;;;;;;;;;;4822954;29;20105;-72
2021/08/15 03:25:45;;;;;;;23.67;14.15;;;;;;;;;;4823043;29;20038;-72
2021/08/15 03:28:11;;;;;;;27.63;13.77;;;;;;;;;;4821634;29;20030;-74
2021/08/15 03:30:36;;;;;;;20.50;12.40;;;;;;;;;;4837213;29;20533;-74
2021/08/15 03:33:02;;;;;;;26.35;13.95;;;;;;;;;;4806879;29;20039;-73
2021/08/15 03:35:28;;;;;;;19.13;12.55;;;;;;;;;;4823008;29;20022;-73
2021/08/15 03:37:53;;;;;;;26.95;13.85;;;;;;;;;;4821498;29;20037;-73
2021/08/15 03:40:19;;;;;;;21.90;13.25;;;;;;;;;;4821396;29;20424;-73
2021/08/15 03:42:44;;;;;;;21.73;12.95;;;;;;;;;;4823044;29;20026;-72
2021/08/15 03:45:10;;;;;;;29.35;14.07;;;;;;;;;;4822836;29;20059;-72
2021/08/15 03:47:36;;;;;;;19.60;13.02;;;;;;;;;;4821601;29;20463;-73
2021/08/15 03:50:04;;;;;;;23.05;13.10;;;;;;;;;;4821516;29;20096;-74
2021/08/15 03:52:29;;;;;;;21.85;13.63;;;;;;;;;;4821942;29;20031;-72
2021/08/15 03:54:55;;;;;;;22.17;12.57;;;;;;;;;;4820750;29;20026;-73
2021/08/15 03:57:21;;;;;;;26.63;13.50;;;;;;;;;;4820435;29;20030;-72
2021/08/15 03:59:46;;;;;;;19.50;12.77;;;;;;;;;;4820563;29;20419;-73
2021/08/15 04:02:12;;;;;;;25.52;14.00;;;;;;;;;;4821892;29;20030;-73
2021/08/15 04:04:38;;;;;;;24.10;14.07;;;;;;;;;;4820642;29;20031;-73
2021/08/15 04:07:04;;;;;;;25.27;14.48;;;;;;;;;;4821975;29;20038;-73
2021/08/15 04:09:29;;;;;;;25.88;14.32;;;;;;;;;;4820243;29;20034;-72
2021/08/15 04:11:55;;;;;;;31.85;14.88;;;;;;;;;;4820453;29;20502;-72
2021/08/15 04:14:22;;;;;;;24.60;15.45;;;;;;;;;;4835467;29;20126;-72
2021/08/15 04:16:48;;;;;;;27.23;13.85;;;;;;;;;;4821740;29;20037;-72
2021/08/15 04:19:13;;;;;;;28.00;13.35;;;;;;;;;;4821447;29;20034;-73
2021/08/15 04:21:39;;;;;;;22.30;12.70;;;;;;;;;;4820229;29;20491;-71
2021/08/15 04:24:04;;;;;;;26.83;13.35;;;;;;;;;;4821699;29;20387;-71
2021/08/15 04:26:30;;;;;;;21.10;12.98;;;;;;;;;;4820046;29;20034;-73
2021/08/15 04:28:55;;;;;;;26.15;13.02;;;;;;;;;;4821531;29;20100;-73
2021/08/15 04:31:21;;;;;;;27.10;13.38;;;;;;;;;;4834991;29;20034;-73
2021/08/15 04:33:46;;;;;;;23.67;13.55;;;;;;;;;;4820815;29;20041;-72
2021/08/15 04:36:12;;;;;;;23.98;12.82;;;;;;;;;;4821141;29;20429;-73
2021/08/15 04:38:38;;;;;;;26.48;13.90;;;;;;;;;;4821457;29;20061;-70
2021/08/15 04:41:03;;;;;;;24.67;14.13;;;;;;;;;;4819981;29;20037;-72
2021/08/15 04:43:31;;;;;;;53.67;16.55;;;;;;;;;;4821080;29;20034;-73
2021/08/15 04:45:57;;;;;;;26.83;14.55;;;;;;;;;;4821344;29;20062;-72
2021/08/15 04:48:22;;;;;;;24.88;13.15;;;;;;;;;;4819873;29;20077;-72
2021/08/15 04:50:48;;;;;;;31.98;14.18;;;;;;;;;;4821339;29;20479;-72
2021/08/15 04:53:13;;;;;;;27.48;13.35;;;;;;;;;;4821102;29;20038;-72
2021/08/15 04:55:39;;;;;;;22.92;13.07;;;;;;;;;;4821076;29;20352;-72
2021/08/15 04:58:05;;;;;;;22.70;13.85;;;;;;;;;;4821289;29;20030;-72
2021/08/15 05:00:30;;;;;;;39.65;14.55;;;;;;;;;;4820889;29;20038;-73
2021/08/15 05:02:56;;;;;;;28.70;13.55;;;;;;;;;;4819848;29;20030;-72
2021/08/15 05:05:21;;;;;;;22.90;13.60;;;;;;;;;;4819323;29;20113;-72
2021/08/15 05:07:47;;;;;;;28.08;13.48;;;;;;;;;;4821067;29;20573;-72
2021/08/15 05:10:13;;;;;;;22.92;13.65;;;;;;;;;;4820832;29;20026;-72
2021/08/15 05:12:38;;;;;;;23.13;15.48;;;;;;;;;;4834678;29;20226;-75
2021/08/15 05:15:04;;;;;;;22.48;13.63;;;;;;;;;;4820832;29;20029;-74
2021/08/15 05:17:30;;;;;;;21.13;13.38;;;;;;;;;;4819296;29;20600;-74
2021/08/15 05:19:55;;;;;;;25.83;13.10;;;;;;;;;;4819623;29;20034;-74
2021/08/15 05:22:21;;;;;;;21.55;12.98;;;;;;;;;;4819266;29;20054;-73
2021/08/15 05:24:46;;;;;;;21.10;12.38;;;;;;;;;;4819591;29;20101;-73
2021/08/15 05:27:12;;;;;;;22.33;12.25;;;;;;;;;;4820792;29;20572;-74
2021/08/15 05:29:37;;;;;;;20.75;13.18;;;;;;;;;;4819510;29;20027;-74
2021/08/15 05:32:03;;;;;;;23.58;12.20;;;;;;;;;;4820028;29;20031;-74
2021/08/15 05:34:29;;;;;;;26.40;14.18;;;;;;;;;;4820847;29;20076;-74
2021/08/15 05:36:54;;;;;;;22.20;12.73;;;;;;;;;;4820506;29;20110;-73
2021/08/15 05:39:20;;;;;;;19.25;12.32;;;;;;;;;;4820341;29;20058;-74
2021/08/15 05:41:45;;;;;;;21.65;12.73;;;;;;;;;;4820605;29;20037;-73
2021/08/15 05:44:11;;;;;;;24.13;14.00;;;;;;;;;;4821969;29;20037;-75
2021/08/15 05:46:36;;;;;;;25.35;12.88;;;;;;;;;;4824022;29;20448;-74
2021/08/15 05:49:02;;;;;;;25.55;12.60;;;;;;;;;;4823023;29;20022;-74
2021/08/15 05:51:27;;;;;;;24.05;13.30;;;;;;;;;;4822468;29;20042;-74
2021/08/15 05:53:53;;;;;;;23.02;12.88;;;;;;;;;;4822750;29;20120;-73
2021/08/15 05:56:18;;;;;;;23.73;13.52;;;;;;;;;;4823658;29;20045;-72
2021/08/15 05:58:44;;;;;;;24.02;12.50;;;;;;;;;;4823917;29;20035;-73
2021/08/15 06:01:09;;;;;;;23.67;12.82;;;;;;;;;;4823891;29;20042;-73
2021/08/15 06:03:35;;;;;;;21.42;12.60;;;;;;;;;;4823682;29;20487;-74
2021/08/15 06:06:00;;;;;;;22.52;13.20;;;;;;;;;;4823914;29;20050;-74
2021/08/15 06:08:26;;;;;;;25.10;13.57;;;;;;;;;;4822278;29;20034;-74
2021/08/15 06:10:54;;;;;;;23.38;13.30;;;;;;;;;;4823797;29;20034;-73
2021/08/15 06:13:20;;;;;;;22.55;13.65;;;;;;;;;;4823586;29;20390;-75
2021/08/15 06:15:45;;;;;;;22.17;12.07;;;;;;;;;;4823626;29;20588;-75
2021/08/15 06:18:11;;;;;;;22.55;13.32;;;;;;;;;;4822163;29;20102;-75
2021/08/15 06:20:36;;;;;;;24.52;13.00;;;;;;;;;;4823552;29;20030;-74
2021/08/15 06:23:02;;;;;;;22.70;12.73;;;;;;;;;;4823915;29;20030;-74
2021/08/15 06:25:28;;;;;;;21.30;12.20;;;;;;;;;;4823714;29;20034;-74
2021/08/15 06:27:53;;;;;;;22.38;13.77;;;;;;;;;;4822518;29;20063;-73
2021/08/15 06:30:21;;;;;;;27.40;14.13;;;;;;;;;;4822638;29;20079;-74
2021/08/15 06:32:55;;;;;;;29.38;13.52;;;;;;;;;;4824036;29;20444;-73
2021/08/15 06:35:27;;;;;;;27.13;13.50;;;;;;;;;;4823941;29;20105;-73
2021/08/15 06:37:54;;;;;;;22.45;12.52;;;;;;;;;;4823520;29;20033;-73
2021/08/15 06:40:25;;;;;;;23.92;13.45;;;;;;;;;;4822241;29;20309;-76
2021/08/15 06:42:51;;;;;;;27.13;13.90;;;;;;;;;;4821848;29;20476;-76
2021/08/15 06:45:18;;;;;;;18.63;12.43;;;;;;;;;;4823005;29;20069;-75
2021/08/15 06:47:44;;;;;;;23.17;13.55;;;;;;;;;;4823220;29;20034;-75
2021/08/15 06:50:11;;;;;;;25.42;13.27;;;;;;;;;;4821989;29;20141;-75
2021/08/15 06:52:36;;;;;;;24.77;13.13;;;;;;;;;;4822765;29;20069;-75
2021/08/15 06:55:03;;;;;;;21.33;13.07;;;;;;;;;;4821197;29;20070;-75
2021/08/15 06:57:29;;;;;;;22.88;13.32;;;;;;;;;;4822614;29;20038;-75
2021/08/15 06:59:55;;;;;;;22.85;13.25;;;;;;;;;;4822890;29;20042;-76
2021/08/15 07:02:20;;;;;;;20.33;12.40;;;;;;;;;;4823267;29;20082;-75
2021/08/15 07:04:46;;;;;;;19.80;12.30;;;;;;;;;;4822995;29;20439;-75
2021/08/15 07:07:12;;;;;;;22.80;13.60;;;;;;;;;;4822641;29;20069;-76
2021/08/15 07:09:37;;;;;;;19.13;12.60;;;;;;;;;;4821302;29;20038;-73
2021/08/15 07:12:04;;;;;;;25.80;13.40;;;;;;;;;;4823094;29;20038;-73
2021/08/15 07:14:29;;;;;;;24.75;12.65;;;;;;;;;;4822996;29;20170;-73
2021/08/15 07:16:59;;;;;;;20.17;12.98;;;;;;;;;;4836832;29;20121;-73
2021/08/15 07:19:24;;;;;;;22.38;13.05;;;;;;;;;;4822574;29;20102;-73
2021/08/15 07:21:51;;;;;;;23.00;13.30;;;;;;;;;;4806372;29;20479;-74
2021/08/15 07:24:17;;;;;;;21.10;12.63;;;;;;;;;;4821425;29;20035;-75
2021/08/15 07:26:42;;;;;;;45.15;16.60;;;;;;;;;;4821235;29;20031;-74
2021/08/15 07:29:08;;;;;;;24.33;13.00;;;;;;;;;;4822893;29;20030;-74
2021/08/15 07:31:34;;;;;;;21.42;11.82;;;;;;;;;;4822314;29;20045;-73
2021/08/15 07:33:59;;;;;;;36.38;13.75;;;;;;;;;;4822462;29;20122;-73
2021/08/15 07:36:25;;;;;;;26.08;13.77;;;;;;;;;;4820825;29;20475;-74
2021/08/15 07:38:51;;;;;;;24.17;13.40;;;;;;;;;;4822236;29;20074;-73
2021/08/15 07:41:16;;;;;;;25.92;16.20;;;;;;;;;;4821279;29;20538;-73
2021/08/15 07:43:42;;;;;;;22.67;14.18;;;;;;;;;;4822177;29;20027;-73
2021/08/15 07:46:08;;;;;;;20.83;12.27;;;;;;;;;;4822273;29;20712;-73
2021/08/15 07:48:34;;;;;;;18.58;11.43;;;;;;;;;;4820850;29;20042;-74
2021/08/15 07:50:59;;;;;;;26.30;12.27;;;;;;;;;;4822145;29;20395;-73
2021/08/15 07:53:26;;;;;;;18.25;11.75;;;;;;;;;;4822193;29;20130;-73
2021/08/15 07:55:54;;;;;;;19.20;11.50;;;;;;;;;;4821952;29;20026;-72
2021/08/15 07:58:21;;;;;;;21.65;10.02;;;;;;;;;;4820415;29;20026;-73
2021/08/15 08:00:48;;;;;;;18.17;10.95;;;;;;;;;;4820392;29;20039;-74
2021/08/15 08:03:13;;;;;;;18.67;11.68;;;;;;;;;;4820708;29;20026;-72
2021/08/15 08:05:40;;;;;;;17.50;10.38;;;;;;;;;;4835739;29;20033;-74
2021/08/15 08:08:06;;;;;;;20.50;10.57;;;;;;;;;;4819539;29;20302;-74
2021/08/15 08:10:32;;;;;;;46.92;13.38;;;;;;;;;;4820242;29;20488;-73
2021/08/15 08:12:57;;;;;;;22.40;12.98;;;;;;;;;;4821685;29;20031;-73
2021/08/15 08:15:23;;;;;;;26.55;11.75;;;;;;;;;;4821255;29;20387;-73
2021/08/15 08:17:49;;;;;;;19.08;12.30;;;;;;;;;;4821634;29;20471;-73
2021/08/15 08:20:16;;;;;;;20.33;11.05;;;;;;;;;;4820067;29;20392;-74
2021/08/15 08:22:42;;;;;;;32.38;12.55;;;;;;;;;;4835613;29;20030;-74
2021/08/15 08:25:08;;;;;;;21.90;11.80;;;;;;;;;;4821706;29;20031;-74
2021/08/15 08:27:34;;;;;;;25.50;10.77;;;;;;;;;;4821828;29;20042;-73
2021/08/15 08:29:59;;;;;;;22.77;10.30;;;;;;;;;;4835770;29;20056;-73
2021/08/15 08:32:24;;;;;;;19.45;11.00;;;;;;;;;;4827694;29;20596;-72
2021/08/15 08:34:50;;;;;;;21.45;9.60;;;;;;;;;;4837513;29;20034;-73
2021/08/15 08:37:18;;;;;;;16.90;10.13;;;;;;;;;;4833757;29;20079;-74
2021/08/15 08:39:43;;;;;;;16.13;8.48;;;;;;;;;;4823906;29;20054;-74
2021/08/15 08:42:11;;;;;;;15.85;9.73;;;;;;;;;;4821591;29;20547;-75
2021/08/15 08:44:37;;;;;;;16.95;9.38;;;;;;;;;;4821096;29;20109;-75
2021/08/15 08:47:05;;;;;;;29.77;11.52;;;;;;;;;;4805212;29;20099;-74
2021/08/15 08:49:32;;;;;;;12.38;8.88;;;;;;;;;;4821833;29;20026;-73
2021/08/15 08:51:58;;;;;;;21.27;8.43;;;;;;;;;;4822173;29;20034;-75
2021/08/15 08:54:28;;;;;;;17.25;8.50;;;;;;;;;;4821823;29;20035;-74
2021/08/15 08:56:54;;;;;;;15.98;9.15;;;;;;;;;;4820229;29;20049;-75
2021/08/15 08:59:20;;;;;;;15.80;9.07;;;;;;;;;;4821057;29;20034;-75
2021/08/15 09:01:46;;;;;;;16.65;8.88;;;;;;;;;;4819808;29;20078;-75
2021/08/15 09:04:12;;;;;;;14.55;9.68;;;;;;;;;;4821201;29;20740;-76
2021/08/15 09:06:39;;;;;;;24.58;13.68;;;;;;;;;;4820860;29;20038;-75
2021/08/15 09:09:18;;;;;;;20.73;10.02;;;;;;;;;;4821313;29;20030;-75
2021/08/15 09:11:47;;;;;;;14.23;8.40;;;;;;;;;;4819722;29;20027;-76
2021/08/15 09:14:26;;;;;;;15.45;9.40;;;;;;;;;;4820180;29;20129;-75
2021/08/15 09:16:55;;;;;;;17.98;9.65;;;;;;;;;;4821032;29;20109;-74
2021/08/15 09:19:50;;;;;;;18.92;9.85;;;;;;;;;;4819474;29;20030;-75
2021/08/15 09:22:18;;;;;;;15.32;8.52;;;;;;;;;;4819591;29;20053;-76
2021/08/15 09:24:48;;;;;;;14.48;9.05;;;;;;;;;;4819291;29;20026;-76
2021/08/15 09:27:19;;;;;;;17.77;8.57;;;;;;;;;;4820712;29;20083;-75
2021/08/15 09:30:03;;;;;;;12.88;7.68;;;;;;;;;;4818711;29;20636;-76
2021/08/15 09:32:28;;;;;;;11.05;7.13;;;;;;;;;;4819263;29;20026;-76
2021/08/15 09:34:58;;;;;;;12.20;7.53;;;;;;;;;;4819539;29;20042;-76
2021/08/15 09:37:28;;;;;;;11.23;7.65;;;;;;;;;;4819405;29;20436;-76
2021/08/15 09:39:54;;;;;;;14.27;6.90;;;;;;;;;;4819333;29;20510;-77
2021/08/15 09:42:44;;;;;;;13.65;7.82;;;;;;;;;;4819330;29;20030;-76
2021/08/15 09:45:14;;;;;;;11.10;6.72;;;;;;;;;;4820752;29;20058;-76
2021/08/15 09:47:41;;;;;;;14.10;7.43;;;;;;;;;;4819221;29;20034;-75
2021/08/15 09:50:24;;;;;;;14.70;8.30;;;;;;;;;;4819792;29;20038;-76
2021/08/15 09:52:50;;;;;;;14.00;7.38;;;;;;;;;;4819112;29;20094;-76
2021/08/15 09:55:16;;;;;;;10.85;7.13;;;;;;;;;;4834804;29;20022;-76
2021/08/15 09:57:42;;;;;;;11.23;7.60;;;;;;;;;;4819450;29;20038;-76
2021/08/15 10:00:20;;;;;;;15.15;7.65;;;;;;;;;;4820682;29;20030;-75
2021/08/15 10:02:47;;;;;;;14.63;7.65;;;;;;;;;;4819231;29;20056;-77
2021/08/15 10:05:12;;;;;;;12.45;7.40;;;;;;;;;;4818902;29;20042;-77
2021/08/15 10:07:39;;;;;;;12.02;6.72;;;;;;;;;;4820174;29;20099;-74
2021/08/15 10:10:05;;;;;;;11.52;6.40;;;;;;;;;;4818993;29;20034;-76
2021/08/15 10:12:33;;;;;;;14.27;5.60;;;;;;;;;;4818947;29;20056;-75
2021/08/15 10:14:59;;;;;;;7.20;5.00;;;;;;;;;;4818715;29;20061;-75
2021/08/15 10:17:28;;;;;;;12.35;6.40;;;;;;;;;;4818996;29;20062;-77
2021/08/15 10:20:00;;;;;;;9.25;6.38;;;;;;;;;;4819055;29;20628;-75
2021/08/15 10:22:31;;;;;;;10.90;7.00;;;;;;;;;;4819884;29;20107;-74
2021/08/15 10:24:59;;;;;;;11.82;5.93;;;;;;;;;;4806333;29;20040;-78
2021/08/15 10:27:47;;;;;;;10.93;5.90;;;;;;;;;;4822607;29;20066;-76
2021/08/15 10:30:13;;;;;;;11.75;6.30;;;;;;;;;;4819429;29;20046;-76
2021/08/15 10:32:58;;;;;;;10.93;6.15;;;;;;;;;;4823442;29;20030;-75
2021/08/15 10:35:34;;;;;;;14.38;6.55;;;;;;;;;;4823178;29;20102;-76
2021/08/15 10:38:05;;;;;;;8.50;6.50;;;;;;;;;;4823202;29;20118;-76
2021/08/15 10:40:45;;;;;;;17.75;6.93;;;;;;;;;;4821926;29;20026;-75
2021/08/15 10:43:20;;;;;;;9.40;6.50;;;;;;;;;;4823742;29;20044;-76
2021/08/15 10:46:11;;;;;;;12.52;6.60;;;;;;;;;;4822772;29;20046;-75
2021/08/15 10:49:00;;;;;;;16.23;6.88;;;;;;;;;;4822780;29;20045;-76
2021/08/15 10:51:47;;;;;;;12.20;7.78;;;;;;;;;;4822053;29;20037;-77
2021/08/15 10:54:27;;;;;;;13.57;8.00;;;;;;;;;;4823007;29;20168;-76
2021/08/15 10:56:55;;;;;;;11.20;7.30;;;;;;;;;;4821534;29;20022;-76
2021/08/15 10:59:43;;;;;;;9.93;7.05;;;;;;;;;;4821721;29;20038;-75
2021/08/15 11:02:15;;;;;;;14.88;7.65;;;;;;;;;;4821785;29;20518;-75
2021/08/15 11:04:54;;;;;;;11.52;7.13;;;;;;;;;;4822758;29;20629;-76
2021/08/15 11:07:33;;;;;;;12.35;6.68;;;;;;;;;;4822601;29;20034;-77
2021/08/15 11:09:58;;;;;;;15.77;9.55;;;;;;;;;;4821475;29;20130;-75
2021/08/15 11:12:24;;;;;;;12.80;6.90;;;;;;;;;;4821691;29;20121;-76
2021/08/15 11:15:22;;;;;;;13.77;6.78;;;;;;;;;;4806193;29;20046;-72
2021/08/15 11:18:10;;;;;;;14.98;6.53;;;;;;;;;;4822500;29;20059;-74
2021/08/15 11:20:42;;;;;;;10.85;7.20;;;;;;;;;;4822481;29;20069;-72
2021/08/15 11:23:12;;;;;;;13.80;7.03;;;;;;;;;;4822800;29;20471;-73
2021/08/15 11:25:39;;;;;;;12.20;8.15;;;;;;;;;;4822275;29;20121;-73
2021/08/15 11:28:05;;;;;;;11.30;7.03;;;;;;;;;;4836660;29;20079;-73
2021/08/15 11:30:31;;;;;;;12.23;7.40;;;;;;;;;;4823421;29;20120;-74
2021/08/15 11:32:59;;;;;;;13.07;7.40;;;;;;;;;;4823304;29;20031;-72
2021/08/15 11:35:33;;;;;;;10.63;6.90;;;;;;;;;;4808832;29;20052;-74
2021/08/15 11:37:59;;;;;;;11.38;7.45;;;;;;;;;;4821492;29;20055;-73
2021/08/15 11:40:30;;;;;;;20.67;8.40;;;;;;;;;;4822641;29;20043;-73
2021/08/15 11:42:56;;;;;;;10.70;6.72;;;;;;;;;;4822060;29;20399;-73
2021/08/15 11:45:30;;;;;;;10.68;7.65;;;;;;;;;;4822380;29;20038;-72
2021/08/15 11:47:56;;;;;;;13.23;8.07;;;;;;;;;;4820872;29;20113;-73
2021/08/15 11:50:22;;;;;;;11.93;7.40;;;;;;;;;;4821093;29;20185;-74
2021/08/15 11:52:49;;;;;;;13.10;8.00;;;;;;;;;;4822169;29;20034;-73
2021/08/15 11:55:22;;;;;;;11.80;7.60;;;;;;;;;;4820926;29;20030;-73
2021/08/15 11:57:56;;;;;;;19.05;8.63;;;;;;;;;;4821926;29;20054;-74
2021/08/15 12:00:33;;;;;;;10.07;6.90;;;;;;;;;;4821012;29;20034;-72
2021/08/15 12:03:07;;;;;;;13.32;7.43;;;;;;;;;;4821952;29;20026;-72
2021/08/15 12:05:41;;;;;;;10.93;6.88;;;;;;;;;;4820727;29;20053;-72
2021/08/15 12:08:13;;;;;;;14.02;8.70;;;;;;;;;;4822116;29;20495;-73
2021/08/15 12:10:42;;;;;;;14.02;7.50;;;;;;;;;;4821693;29;20557;-73
2021/08/15 12:13:33;;;;;;;17.25;7.35;;;;;;;;;;4820375;29;20506;-73
2021/08/15 12:15:58;;;;;;;11.13;7.05;;;;;;;;;;4820249;29;20491;-73
2021/08/15 12:18:45;;;;;;;12.15;7.20;;;;;;;;;;4820396;29;20037;-72
2021/08/15 12:21:19;;;;;;;12.00;7.43;;;;;;;;;;4810810;29;20042;-72
2021/08/15 12:23:59;;;;;;;13.77;7.55;;;;;;;;;;4820097;29;20118;-74
2021/08/15 12:26:27;;;;;;;13.70;8.30;;;;;;;;;;4822187;29;20249;-72
2021/08/15 12:28:58;;;;;;;14.00;8.68;;;;;;;;;;4820207;29;20121;-73
2021/08/15 12:31:27;;;;;;;14.23;7.45;;;;;;;;;;4820578;29;20042;-73
2021/08/15 12:34:17;;;;;;;12.32;7.28;;;;;;;;;;4820070;29;20046;-74
2021/08/15 12:36:51;;;;;;;20.55;8.35;;;;;;;;;;4821237;29;20034;-76
2021/08/15 12:39:24;;;;;;;15.52;7.60;;;;;;;;;;4821345;29;20050;-76
2021/08/15 12:41:59;;;;;;;11.32;7.57;;;;;;;;;;4821137;29;20037;-75
2021/08/15 12:44:44;;;;;;;13.15;7.38;;;;;;;;;;4821387;29;20101;-75
2021/08/15 12:47:10;;;;;;;16.58;7.55;;;;;;;;;;4819804;29;20630;-76
2021/08/15 12:49:39;;;;;;;12.75;7.68;;;;;;;;;;4819659;29;20479;-77
2021/08/15 12:52:13;;;;;;;9.68;6.57;;;;;;;;;;4821427;29;20030;-77
2021/08/15 12:55:00;;;;;;;13.27;7.15;;;;;;;;;;4819192;29;20034;-73
2021/08/15 12:57:26;;;;;;;9.57;7.38;;;;;;;;;;4821204;29;20026;-76
2021/08/15 12:59:51;;;;;;;12.40;7.47;;;;;;;;;;4820948;29;20038;-76
2021/08/15 13:02:17;;;;;;;10.45;6.78;;;;;;;;;;4821020;29;20487;-75
2021/08/15 13:04:42;;;;;;;9.75;7.10;;;;;;;;;;4819679;29;20522;-73
2021/08/15 13:07:07;;;;;;;11.02;6.47;;;;;;;;;;4819823;29;20156;-73
2021/08/15 13:09:33;;;;;;;18.75;7.90;;;;;;;;;;4819993;29;20102;-72
2021/08/15 13:11:58;;;;;;;15.48;7.28;;;;;;;;;;4819722;29;20546;-73
2021/08/15 13:14:24;;;;;;;16.25;7.20;;;;;;;;;;4821062;29;20102;-73
2021/08/15 13:16:55;;;;;;;12.68;7.03;;;;;;;;;;4820915;29;20022;-73
2021/08/15 13:19:21;;;;;;;8.43;5.63;;;;;;;;;;4821080;29;20038;-74
2021/08/15 13:21:47;;;;;;;9.65;5.53;;;;;;;;;;4819630;29;20542;-74
2021/08/15 13:24:13;;;;;;;11.80;5.88;;;;;;;;;;4821477;29;20174;-74
2021/08/15 13:26:38;;;;;;;10.70;6.55;;;;;;;;;;4821156;29;20121;-73
2021/08/15 13:29:04;;;;;;;10.68;6.07;;;;;;;;;;4819629;29;20034;-74
2021/08/15 13:31:29;;;;;;;13.02;6.70;;;;;;;;;;4820648;29;20089;-76
2021/08/15 13:33:55;;;;;;;11.52;6.53;;;;;;;;;;4820271;29;20042;-75
2021/08/15 13:36:20;;;;;;;14.73;6.40;;;;;;;;;;4820385;29;20030;-76
2021/08/15 13:38:46;;;;;;;9.50;5.95;;;;;;;;;;4818511;29;20058;-76
2021/08/15 13:41:12;;;;;;;8.52;5.80;;;;;;;;;;4818805;29;20060;-76
2021/08/15 13:43:37;;;;;;;8.75;5.93;;;;;;;;;;4820071;29;20387;-77
2021/08/15 13:46:04;;;;;;;8.70;5.53;;;;;;;;;;4818798;29;20086;-76
2021/08/15 13:48:29;;;;;;;11.95;5.82;;;;;;;;;;4820412;29;20034;-75
2021/08/15 13:50:55;;;;;;;10.98;5.88;;;;;;;;;;4819273;29;20049;-77
2021/08/15 13:53:21;;;;;;;9.02;5.47;;;;;;;;;;4820709;29;20038;-77
2021/08/15 13:55:47;;;;;;;8.88;5.60;;;;;;;;;;4818826;29;20026;-77
2021/08/15 13:58:12;;;;;;;7.05;5.43;;;;;;;;;;4820582;29;20057;-75
2021/08/15 14:00:38;;;;;;;9.10;5.30;;;;;;;;;;4821256;29;20089;-76
2021/08/15 14:03:04;;;;;;;9.30;4.65;;;;;;;;;;4819749;29;20141;-78
2021/08/15 14:05:30;;;;;;;9.57;5.25;;;;;;;;;;4822503;29;21943;-78
2021/08/15 14:07:56;;;;;;;8.60;5.22;;;;;;;;;;4821954;29;20555;-75
2021/08/15 14:10:21;;;;;;;10.00;5.47;;;;;;;;;;4823532;29;20045;-74
2021/08/15 14:12:48;;;;;;;9.52;5.63;;;;;;;;;;4823468;29;20427;-74
2021/08/15 14:15:14;;;;;;;10.88;5.35;;;;;;;;;;4823375;29;20345;-73
2021/08/15 14:17:41;;;;;;;8.15;5.40;;;;;;;;;;4821947;29;20022;-73
2021/08/15 14:20:08;;;;;;;10.50;6.10;;;;;;;;;;4821553;29;20343;-72
2021/08/15 14:22:33;;;;;;;9.63;5.20;;;;;;;;;;4821643;29;20030;-72
2021/08/15 14:24:59;;;;;;;7.05;5.55;;;;;;;;;;4821930;29;20031;-75
2021/08/15 14:27:26;;;;;;;11.77;5.70;;;;;;;;;;4822976;29;20122;-73